sensor_id;sensor_type;location;lat;lon;timestamp;pressure;altitude;pressure_sealevel;temperature;humidity
61109;BME280;46995;55.740;37.402;2024-01-25T00:02:05;98322.56;;;1.20;97.84
61109;BME280;46995;55.740;37.402;2024-01-25T00:04:30;98317.13;;;1.23;97.62
61109;BME280;46995;55.740;37.402;2024-01-25T00:06:56;98309.25;;;1.24;98.02
61109;BME280;46995;55.740;37.402;2024-01-25T00:09:22;98310.25;;;1.22;97.72
61109;BME280;46995;55.740;37.402;2024-01-25T00:11:47;98308.81;;;1.18;97.61
61109;BME280;46995;55.740;37.402;2024-01-25T00:14:13;98303.63;;;1.18;97.81
61109;BME280;46995;55.740;37.402;2024-01-25T00:16:42;98301.00;;;1.18;97.93
61109;BME280;46995;55.740;37.402;2024-01-25T00:19:07;98291.34;;;1.20;97.98
61109;BME280;46995;55.740;37.402;2024-01-25T00:21:33;98292.16;;;1.20;97.71
61109;BME280;46995;55.740;37.402;2024-01-25T00:23:59;98258.69;;;1.03;97.93
61109;BME280;46995;55.740;37.402;2024-01-25T00:26:24;98279.47;;;1.16;97.54
61109;BME280;46995;55.740;37.402;2024-01-25T00:28:50;98279.47;;;1.16;97.60
61109;BME280;46995;55.740;37.402;2024-01-25T00:31:15;98278.53;;;1.17;97.89
61109;BME280;46995;55.740;37.402;2024-01-25T00:33:41;98277.63;;;1.18;97.89
61109;BME280;46995;55.740;37.402;2024-01-25T00:36:07;98267.44;;;1.15;97.65
61109;BME280;46995;55.740;37.402;2024-01-25T00:38:33;98271.81;;;1.14;97.85
61109;BME280;46995;55.740;37.402;2024-01-25T00:40:58;98270.97;;;1.14;97.88
61109;BME280;46995;55.740;37.402;2024-01-25T00:43:24;98267.44;;;1.15;97.68
61109;BME280;46995;55.740;37.402;2024-01-25T00:45:51;98269.06;;;1.16;97.68
61109;BME280;46995;55.740;37.402;2024-01-25T00:48:17;98265.53;;;1.17;98.06
61109;BME280;46995;55.740;37.402;2024-01-25T00:50:43;98257.84;;;1.15;97.96
61109;BME280;46995;55.740;37.402;2024-01-25T00:53:08;98252.78;;;1.14;97.58
61109;BME280;46995;55.740;37.402;2024-01-25T00:55:34;98256.53;;;1.10;97.97
61109;BME280;46995;55.740;37.402;2024-01-25T00:58:00;98242.78;;;1.08;97.94
61109;BME280;46995;55.740;37.402;2024-01-25T01:00:26;98241.84;;;1.09;97.89
61109;BME280;46995;55.740;37.402;2024-01-25T01:02:51;98240.78;;;1.11;97.91
61109;BME280;46995;55.740;37.402;2024-01-25T01:05:18;98239.97;;;1.11;97.88
61109;BME280;46995;55.740;37.402;2024-01-25T01:07:44;98236.44;;;1.12;97.61
61109;BME280;46995;55.740;37.402;2024-01-25T01:10:10;98236.66;;;1.09;97.93
61109;BME280;46995;55.740;37.402;2024-01-25T01:12:36;98233.84;;;1.12;97.54
61109;BME280;46995;55.740;37.402;2024-01-25T01:17:32;98215.13;;;1.07;97.56
61109;BME280;46995;55.740;37.402;2024-01-25T01:19:57;98214.38;;;1.05;97.68
61109;BME280;46995;55.740;37.402;2024-01-25T01:22:23;98211.69;;;1.06;97.75
61109;BME280;46995;55.740;37.402;2024-01-25T01:24:48;98210.84;;;1.06;97.76
61109;BME280;46995;55.740;37.402;2024-01-25T01:27:14;98202.88;;;1.09;97.61
61109;BME280;46995;55.740;37.402;2024-01-25T01:29:40;98210.66;;;1.09;97.81
61109;BME280;46995;55.740;37.402;2024-01-25T01:32:06;98206.38;;;1.08;97.91
61109;BME280;46995;55.740;37.402;2024-01-25T01:34:32;98207.31;;;1.07;97.71
61109;BME280;46995;55.740;37.402;2024-01-25T01:36:57;98202.97;;;1.07;97.76
61109;BME280;46995;55.740;37.402;2024-01-25T01:39:23;98203.78;;;1.08;97.92
61109;BME280;46995;55.740;37.402;2024-01-25T01:41:50;98198.59;;;1.08;97.50
61109;BME280;46995;55.740;37.402;2024-01-25T01:44:16;98199.44;;;1.08;97.85
61109;BME280;46995;55.740;37.402;2024-01-25T01:46:42;98189.88;;;1.09;97.66
61109;BME280;46995;55.740;37.402;2024-01-25T01:49:09;98189.03;;;1.08;97.68
61109;BME280;46995;55.740;37.402;2024-01-25T01:51:36;98189.22;;;1.05;97.85
61109;BME280;46995;55.740;37.402;2024-01-25T01:54:03;98185.69;;;1.06;97.70
61109;BME280;46995;55.740;37.402;2024-01-25T01:56:31;98191.94;;;1.04;97.37
61109;BME280;46995;55.740;37.402;2024-01-25T01:59:00;98186.94;;;1.01;97.59
61109;BME280;46995;55.740;37.402;2024-01-25T02:01:27;98182.91;;;0.97;97.51
61109;BME280;46995;55.740;37.402;2024-01-25T02:03:53;98183.00;;;0.95;97.82
61109;BME280;46995;55.740;37.402;2024-01-25T02:06:19;98186.56;;;0.94;97.68
61109;BME280;46995;55.740;37.402;2024-01-25T02:08:45;98184.06;;;0.93;97.54
61109;BME280;46995;55.740;37.402;2024-01-25T02:11:14;98187.59;;;0.92;97.69
61109;BME280;46995;55.740;37.402;2024-01-25T02:13:40;98179.69;;;0.93;97.59
61109;BME280;46995;55.740;37.402;2024-01-25T02:16:07;98185.72;;;0.94;97.46
61109;BME280;46995;55.740;37.402;2024-01-25T02:18:52;98185.50;;;0.97;97.27
61109;BME280;46995;55.740;37.402;2024-01-25T02:21:19;98191.63;;;0.96;97.40
61109;BME280;46995;55.740;37.402;2024-01-25T02:23:45;98182.16;;;0.95;97.56
61109;BME280;46995;55.740;37.402;2024-01-25T02:26:11;98181.34;;;0.94;97.49
61109;BME280;46995;55.740;37.402;2024-01-25T02:28:36;98183.22;;;0.92;97.67
61109;BME280;46995;55.740;37.402;2024-01-25T02:31:02;98176.56;;;0.88;97.41
61109;BME280;46995;55.740;37.402;2024-01-25T02:33:28;98176.25;;;0.80;97.52
61109;BME280;46995;55.740;37.402;2024-01-25T02:35:53;98174.81;;;0.76;97.41
61109;BME280;46995;55.740;37.402;2024-01-25T02:38:19;98168.03;;;0.73;97.77
61109;BME280;46995;55.740;37.402;2024-01-25T02:40:45;98171.59;;;0.72;97.19
61109;BME280;46995;55.740;37.402;2024-01-25T02:43:10;98165.56;;;0.72;97.45
61109;BME280;46995;55.740;37.402;2024-01-25T02:45:36;98168.34;;;0.69;97.77
61109;BME280;46995;55.740;37.402;2024-01-25T02:48:02;98165.97;;;0.66;97.47
61109;BME280;46995;55.740;37.402;2024-01-25T02:50:28;98160.16;;;0.62;97.42
61109;BME280;46995;55.740;37.402;2024-01-25T02:52:54;98156.84;;;0.60;97.43
61109;BME280;46995;55.740;37.402;2024-01-25T02:55:21;98155.81;;;0.63;97.62
61109;BME280;46995;55.740;37.402;2024-01-25T02:57:46;98161.94;;;0.62;98.02
61109;BME280;46995;55.740;37.402;2024-01-25T03:00:12;98154.13;;;0.62;97.89
61109;BME280;46995;55.740;37.402;2024-01-25T03:02:38;98156.59;;;0.63;97.83
61109;BME280;46995;55.740;37.402;2024-01-25T03:05:04;98157.25;;;0.67;97.73
61109;BME280;46995;55.740;37.402;2024-01-25T03:07:29;98154.34;;;0.71;97.41
61109;BME280;46995;55.740;37.402;2024-01-25T03:09:57;98149.84;;;0.73;97.65
61109;BME280;46995;55.740;37.402;2024-01-25T03:12:23;98156.00;;;0.72;97.39
61109;BME280;46995;55.740;37.402;2024-01-25T03:14:49;98144.78;;;0.72;97.43
61109;BME280;46995;55.740;37.402;2024-01-25T03:17:14;98138.53;;;0.74;97.91
61109;BME280;46995;55.740;37.402;2024-01-25T03:19:40;98140.00;;;0.78;97.45
61109;BME280;46995;55.740;37.402;2024-01-25T03:22:06;98140.19;;;0.75;97.34
61109;BME280;46995;55.740;37.402;2024-01-25T03:24:31;98149.75;;;0.75;97.44
61109;BME280;46995;55.740;37.402;2024-01-25T03:26:57;98138.34;;;0.77;97.72
61109;BME280;46995;55.740;37.402;2024-01-25T03:29:22;98139.16;;;0.78;97.56
61109;BME280;46995;55.740;37.402;2024-01-25T03:31:48;98137.41;;;0.78;97.31
61109;BME280;46995;55.740;37.402;2024-01-25T03:34:15;98139.16;;;0.78;97.56
61109;BME280;46995;55.740;37.402;2024-01-25T03:36:40;98145.19;;;0.78;97.36
61109;BME280;46995;55.740;37.402;2024-01-25T03:39:06;98141.63;;;0.79;97.69
61109;BME280;46995;55.740;37.402;2024-01-25T03:41:34;98143.31;;;0.80;97.09
61109;BME280;46995;55.740;37.402;2024-01-25T03:44:00;98134.59;;;0.81;97.50
61109;BME280;46995;55.740;37.402;2024-01-25T03:46:26;98138.53;;;0.74;97.48
61109;BME280;46995;55.740;37.402;2024-01-25T03:48:52;98131.88;;;0.70;97.13
61109;BME280;46995;55.740;37.402;2024-01-25T03:51:19;98126.91;;;0.67;97.21
61109;BME280;46995;55.740;37.402;2024-01-25T03:53:45;98133.75;;;0.68;97.37
61109;BME280;46995;55.740;37.402;2024-01-25T03:56:14;98128.34;;;0.71;97.39
61109;BME280;46995;55.740;37.402;2024-01-25T03:58:42;98130.44;;;0.66;97.29
61109;BME280;46995;55.740;37.402;2024-01-25T04:01:08;98130.44;;;0.66;97.10
61109;BME280;46995;55.740;37.402;2024-01-25T04:03:34;98128.78;;;0.65;97.30
61109;BME280;46995;55.740;37.402;2024-01-25T04:06:00;98125.25;;;0.66;97.42
61109;BME280;46995;55.740;37.402;2024-01-25T04:08:25;98131.97;;;0.69;97.54
61109;BME280;46995;55.740;37.402;2024-01-25T04:10:51;98120.66;;;0.70;97.50
61109;BME280;46995;55.740;37.402;2024-01-25T04:13:17;98117.22;;;0.69;97.36
61109;BME280;46995;55.740;37.402;2024-01-25T04:15:43;98118.16;;;0.68;97.45
61109;BME280;46995;55.740;37.402;2024-01-25T04:18:08;98117.34;;;0.68;97.31
61109;BME280;46995;55.740;37.402;2024-01-25T04:20:34;98116.31;;;0.70;97.59
61109;BME280;46995;55.740;37.402;2024-01-25T04:23:00;98124.84;;;0.72;97.43
61109;BME280;46995;55.740;37.402;2024-01-25T04:25:25;98127.53;;;0.71;97.26
61109;BME280;46995;55.740;37.402;2024-01-25T04:27:51;98125.25;;;0.66;97.22
61109;BME280;46995;55.740;37.402;2024-01-25T04:30:17;98118.47;;;0.64;97.07
61109;BME280;46995;55.740;37.402;2024-01-25T04:32:43;98123.56;;;0.65;97.24
61109;BME280;46995;55.740;37.402;2024-01-25T04:35:09;98128.56;;;0.68;97.16
61109;BME280;46995;55.740;37.402;2024-01-25T04:37:35;98124.31;;;0.67;97.54
61109;BME280;46995;55.740;37.402;2024-01-25T04:40:01;98130.44;;;0.66;97.24
61109;BME280;46995;55.740;37.402;2024-01-25T04:42:27;98121.72;;;0.67;97.48
61109;BME280;46995;55.740;37.402;2024-01-25T04:44:53;98123.91;;;0.61;97.08
61109;BME280;46995;55.740;37.402;2024-01-25T04:47:18;98128.34;;;0.59;97.32
61109;BME280;46995;55.740;37.402;2024-01-25T04:49:44;98123.38;;;0.56;97.41
61109;BME280;46995;55.740;37.402;2024-01-25T04:52:10;98126.06;;;0.54;97.07
61109;BME280;46995;55.740;37.402;2024-01-25T04:54:35;98122.66;;;0.54;97.47
61109;BME280;46995;55.740;37.402;2024-01-25T04:57:01;98129.72;;;0.52;97.17
61109;BME280;46995;55.740;37.402;2024-01-25T04:59:27;98132.41;;;0.50;97.07
61109;BME280;46995;55.740;37.402;2024-01-25T05:01:53;98124.53;;;0.52;97.14
61109;BME280;46995;55.740;37.402;2024-01-25T05:04:20;98111.56;;;0.52;97.13
61109;BME280;46995;55.740;37.402;2024-01-25T05:06:46;98117.44;;;0.54;97.15
61109;BME280;46995;55.740;37.402;2024-01-25T05:09:11;98118.50;;;0.51;97.21
61109;BME280;46995;55.740;37.402;2024-01-25T05:11:38;98116.75;;;0.52;97.17
61109;BME280;46995;55.740;37.402;2024-01-25T05:14:03;98115.78;;;0.53;97.02
61109;BME280;46995;55.740;37.402;2024-01-25T05:16:29;98119.66;;;0.47;97.04
61109;BME280;46995;55.740;37.402;2024-01-25T05:18:55;98116.31;;;0.45;97.13
61109;BME280;46995;55.740;37.402;2024-01-25T05:21:20;98119.75;;;0.46;97.11
61109;BME280;46995;55.740;37.402;2024-01-25T05:23:46;98120.69;;;0.45;97.04
61109;BME280;46995;55.740;37.402;2024-01-25T05:26:11;98112.78;;;0.46;97.13
61109;BME280;46995;55.740;37.402;2024-01-25T05:28:37;98121.28;;;0.48;97.19
61109;BME280;46995;55.740;37.402;2024-01-25T05:31:03;98107.28;;;0.51;97.14
61109;BME280;46995;55.740;37.402;2024-01-25T05:33:29;98124.63;;;0.50;96.75
61109;BME280;46995;55.740;37.402;2024-01-25T05:35:54;98112.56;;;0.49;96.72
61109;BME280;46995;55.740;37.402;2024-01-25T05:38:20;98120.38;;;0.49;97.01
61109;BME280;46995;55.740;37.402;2024-01-25T05:40:45;98119.44;;;0.50;96.79
61109;BME280;46995;55.740;37.402;2024-01-25T05:43:12;98123.88;;;0.48;96.63
61109;BME280;46995;55.740;37.402;2024-01-25T05:45:37;98124.84;;;0.47;96.57
61109;BME280;46995;55.740;37.402;2024-01-25T05:48:03;98119.66;;;0.47;96.63
61109;BME280;46995;55.740;37.402;2024-01-25T05:50:29;98116.31;;;0.45;96.88
61109;BME280;46995;55.740;37.402;2024-01-25T05:52:54;98118.69;;;0.48;96.83
61109;BME280;46995;55.740;37.402;2024-01-25T05:55:20;98117.75;;;0.49;97.02
61109;BME280;46995;55.740;37.402;2024-01-25T05:57:47;98121.94;;;0.52;96.80
61109;BME280;46995;55.740;37.402;2024-01-25T06:00:13;98115.78;;;0.53;96.65
61109;BME280;46995;55.740;37.402;2024-01-25T06:02:39;98113.31;;;0.51;96.75
61109;BME280;46995;55.740;37.402;2024-01-25T06:05:05;98111.41;;;0.53;96.38
61109;BME280;46995;55.740;37.402;2024-01-25T06:07:31;98119.03;;;0.56;96.80
61109;BME280;46995;55.740;37.402;2024-01-25T06:09:56;98117.88;;;0.60;96.83
61109;BME280;46995;55.740;37.402;2024-01-25T06:12:22;98119.63;;;0.60;96.62
61109;BME280;46995;55.740;37.402;2024-01-25T06:14:48;98115.06;;;0.63;96.82
61109;BME280;46995;55.740;37.402;2024-01-25T06:17:13;98109.84;;;0.63;96.73
61109;BME280;46995;55.740;37.402;2024-01-25T06:19:39;98115.88;;;0.64;96.48
61109;BME280;46995;55.740;37.402;2024-01-25T06:22:05;98110.91;;;0.61;96.47
61109;BME280;46995;55.740;37.402;2024-01-25T06:24:30;98104.78;;;0.62;96.41
61109;BME280;46995;55.740;37.402;2024-01-25T06:26:56;98105.50;;;0.64;96.62
61109;BME280;46995;55.740;37.402;2024-01-25T06:29:22;98108.94;;;0.64;96.44
61109;BME280;46995;55.740;37.402;2024-01-25T06:31:51;98103.22;;;0.59;96.35
61109;BME280;46995;55.740;37.402;2024-01-25T06:34:16;98104.78;;;0.49;96.06
61109;BME280;46995;55.740;37.402;2024-01-25T06:36:42;98100.75;;;0.45;96.36
61109;BME280;46995;55.740;37.402;2024-01-25T06:39:07;98103.25;;;0.47;96.28
61109;BME280;46995;55.740;37.402;2024-01-25T06:41:33;98111.13;;;0.45;96.41
61109;BME280;46995;55.740;37.402;2024-01-25T06:43:59;98110.38;;;0.43;96.40
61109;BME280;46995;55.740;37.402;2024-01-25T06:46:25;98100.94;;;0.42;96.59
61109;BME280;46995;55.740;37.402;2024-01-25T06:48:51;98115.72;;;0.41;96.50
61109;BME280;46995;55.740;37.402;2024-01-25T06:51:16;98110.59;;;0.40;96.06
61109;BME280;46995;55.740;37.402;2024-01-25T06:53:42;98111.53;;;0.39;96.10
61109;BME280;46995;55.740;37.402;2024-01-25T06:56:08;98104.47;;;0.41;96.43
61109;BME280;46995;55.740;37.402;2024-01-25T06:58:37;98113.81;;;0.43;96.27
61109;BME280;46995;55.740;37.402;2024-01-25T07:01:02;98107.78;;;0.43;96.03
61109;BME280;46995;55.740;37.402;2024-01-25T07:03:29;98117.34;;;0.42;95.91
61109;BME280;46995;55.740;37.402;2024-01-25T07:06:13;98116.63;;;0.40;96.05
61109;BME280;46995;55.740;37.402;2024-01-25T07:08:39;98123.69;;;0.38;96.25
61109;BME280;46995;55.740;37.402;2024-01-25T07:11:05;98122.75;;;0.39;96.26
61109;BME280;46995;55.740;37.402;2024-01-25T07:13:30;98126.50;;;0.35;96.34
61109;BME280;46995;55.740;37.402;2024-01-25T07:15:56;98120.25;;;0.38;96.16
61109;BME280;46995;55.740;37.402;2024-01-25T07:18:21;98119.94;;;0.42;96.33
61109;BME280;46995;55.740;37.402;2024-01-25T07:20:49;98112.78;;;0.46;96.41
61109;BME280;46995;55.740;37.402;2024-01-25T07:23:15;98128.16;;;0.49;96.04
61109;BME280;46995;55.740;37.402;2024-01-25T07:25:41;98121.28;;;0.48;96.60
61109;BME280;46995;55.740;37.402;2024-01-25T07:28:07;98112.56;;;0.49;96.33
61109;BME280;46995;55.740;37.402;2024-01-25T07:30:32;98106.53;;;0.49;96.49
61109;BME280;46995;55.740;37.402;2024-01-25T07:32:58;98116.09;;;0.48;96.23
61109;BME280;46995;55.740;37.402;2024-01-25T07:35:23;98113.81;;;0.43;96.42
61109;BME280;46995;55.740;37.402;2024-01-25T07:37:49;98108.00;;;0.40;96.44
61109;BME280;46995;55.740;37.402;2024-01-25T07:40:15;98111.53;;;0.39;96.73
61109;BME280;46995;55.740;37.402;2024-01-25T07:42:40;98115.06;;;0.38;96.32
61109;BME280;46995;55.740;37.402;2024-01-25T07:45:06;98112.69;;;0.35;96.36
61109;BME280;46995;55.740;37.402;2024-01-25T07:47:32;98119.31;;;0.39;96.20
61109;BME280;46995;55.740;37.402;2024-01-25T07:49:57;98114.66;;;0.44;96.03
61109;BME280;46995;55.740;37.402;2024-01-25T07:52:23;98118.50;;;0.51;96.50
61109;BME280;46995;55.740;37.402;2024-01-25T07:55:07;98114.97;;;0.52;96.64
61109;BME280;46995;55.740;37.402;2024-01-25T07:57:33;98119.44;;;0.50;96.10
61109;BME280;46995;55.740;37.402;2024-01-25T07:59:58;98108.22;;;0.50;96.41
61109;BME280;46995;55.740;37.402;2024-01-25T08:02:24;98109.66;;;0.54;96.28
61109;BME280;46995;55.740;37.402;2024-01-25T08:04:49;98113.81;;;0.56;96.43
61109;BME280;46995;55.740;37.402;2024-01-25T08:07:35;98113.59;;;0.59;96.59
61109;BME280;46995;55.740;37.402;2024-01-25T08:10:01;98117.34;;;0.68;96.37
61109;BME280;46995;55.740;37.402;2024-01-25T08:12:28;98115.28;;;0.73;96.22
61109;BME280;46995;55.740;37.402;2024-01-25T08:14:53;98110.69;;;0.76;96.22
61109;BME280;46995;55.740;37.402;2024-01-25T08:17:20;98116.63;;;0.78;96.40
61109;BME280;46995;55.740;37.402;2024-01-25T08:19:46;98116.50;;;0.80;96.08
61109;BME280;46995;55.740;37.402;2024-01-25T08:22:12;98117.56;;;0.77;96.19
61109;BME280;46995;55.740;37.402;2024-01-25T08:24:40;98108.00;;;0.78;95.95
61109;BME280;46995;55.740;37.402;2024-01-25T08:27:06;98107.16;;;0.77;95.96
61109;BME280;46995;55.740;37.402;2024-01-25T08:29:34;98110.19;;;0.71;96.06
61109;BME280;46995;55.740;37.402;2024-01-25T08:32:02;98116.06;;;0.73;95.85
61109;BME280;46995;55.740;37.402;2024-01-25T08:34:28;98104.34;;;0.80;95.88
61109;BME280;46995;55.740;37.402;2024-01-25T08:36:54;98113.38;;;0.88;96.21
61109;BME280;46995;55.740;37.402;2024-01-25T08:39:20;98111.47;;;0.90;96.14
61109;BME280;46995;55.740;37.402;2024-01-25T08:42:04;98111.28;;;0.93;96.03
61109;BME280;46995;55.740;37.402;2024-01-25T08:44:31;98106.69;;;0.96;96.05
61109;BME280;46995;55.740;37.402;2024-01-25T08:46:57;98109.19;;;0.98;96.04
61109;BME280;46995;55.740;37.402;2024-01-25T08:49:23;98109.19;;;0.98;95.77
61109;BME280;46995;55.740;37.402;2024-01-25T08:51:48;98107.75;;;0.94;95.91
61109;BME280;46995;55.740;37.402;2024-01-25T08:54:14;98115.84;;;0.89;96.18
61109;BME280;46995;55.740;37.402;2024-01-25T08:56:40;98106.28;;;0.90;96.16
61109;BME280;46995;55.740;37.402;2024-01-25T08:59:05;98102.75;;;0.91;96.10
61109;BME280;46995;55.740;37.402;2024-01-25T09:01:32;98104.19;;;0.95;95.95
61109;BME280;46995;55.740;37.402;2024-01-25T09:03:58;98107.44;;;0.98;95.97
61109;BME280;46995;55.740;37.402;2024-01-25T09:06:28;98115.41;;;1.08;96.12
61109;BME280;46995;55.740;37.402;2024-01-25T09:08:54;98117.69;;;1.12;96.19
61109;BME280;46995;55.740;37.402;2024-01-25T09:11:20;98107.06;;;1.15;96.07
61109;BME280;46995;55.740;37.402;2024-01-25T09:13:46;98112.47;;;1.12;95.81
61109;BME280;46995;55.740;37.402;2024-01-25T09:16:13;98125.19;;;1.04;95.46
61109;BME280;46995;55.740;37.402;2024-01-25T09:18:38;98110.22;;;0.95;95.36
61109;BME280;46995;55.740;37.402;2024-01-25T09:21:04;98114.81;;;0.92;95.78
61109;BME280;46995;55.740;37.402;2024-01-25T09:23:31;98108.69;;;0.93;95.34
61109;BME280;46995;55.740;37.402;2024-01-25T09:25:58;98108.69;;;0.93;95.44
61109;BME280;46995;55.740;37.402;2024-01-25T09:28:24;98103.81;;;0.88;95.49
61109;BME280;46995;55.740;37.402;2024-01-25T09:30:49;98110.88;;;0.86;95.42
61109;BME280;46995;55.740;37.402;2024-01-25T09:33:15;98106.75;;;0.83;95.76
61109;BME280;46995;55.740;37.402;2024-01-25T09:35:41;98111.94;;;0.83;95.76
61109;BME280;46995;55.740;37.402;2024-01-25T09:38:07;98108.38;;;0.84;95.64
61109;BME280;46995;55.740;37.402;2024-01-25T09:40:32;98109.34;;;0.83;95.39
61109;BME280;46995;55.740;37.402;2024-01-25T09:42:58;98107.53;;;0.84;95.68
61109;BME280;46995;55.740;37.402;2024-01-25T09:45:24;98099.66;;;0.85;95.81
61109;BME280;46995;55.740;37.402;2024-01-25T09:47:50;98097.56;;;0.91;95.79
61109;BME280;46995;55.740;37.402;2024-01-25T09:50:16;98094.03;;;0.92;95.65
61109;BME280;46995;55.740;37.402;2024-01-25T09:52:45;98092.78;;;0.97;95.65
61109;BME280;46995;55.740;37.402;2024-01-25T09:55:14;98088.50;;;0.96;95.88
61109;BME280;46995;55.740;37.402;2024-01-25T09:57:45;98086.63;;;0.98;95.62
61109;BME280;46995;55.740;37.402;2024-01-25T10:00:12;98090.78;;;1.01;95.69
61109;BME280;46995;55.740;37.402;2024-01-25T10:02:38;98088.19;;;1.01;95.53
61109;BME280;46995;55.740;37.402;2024-01-25T10:05:04;98079.53;;;1.00;95.55
61109;BME280;46995;55.740;37.402;2024-01-25T10:07:39;98080.50;;;0.99;95.76
61109;BME280;46995;55.740;37.402;2024-01-25T10:10:05;98080.38;;;1.01;95.71
61109;BME280;46995;55.740;37.402;2024-01-25T10:12:31;98077.78;;;1.01;95.84
61109;BME280;46995;55.740;37.402;2024-01-25T10:14:57;98082.03;;;1.02;96.27
61109;BME280;46995;55.740;37.402;2024-01-25T10:17:22;98074.97;;;1.04;95.77
61109;BME280;46995;55.740;37.402;2024-01-25T10:19:50;98081.38;;;1.11;96.03
61109;BME280;46995;55.740;37.402;2024-01-25T10:22:15;98079.28;;;1.16;96.12
61109;BME280;46995;55.740;37.402;2024-01-25T10:24:41;98086.38;;;1.14;95.70
61109;BME280;46995;55.740;37.402;2024-01-25T10:27:07;98077.59;;;1.04;95.87
61109;BME280;46995;55.740;37.402;2024-01-25T10:29:37;98079.03;;;0.95;95.46
61109;BME280;46995;55.740;37.402;2024-01-25T10:32:03;98088.72;;;0.93;95.86
61109;BME280;46995;55.740;37.402;2024-01-25T10:34:30;98081.97;;;0.91;95.70
61109;BME280;46995;55.740;37.402;2024-01-25T10:36:56;98085.06;;;0.96;95.83
61109;BME280;46995;55.740;37.402;2024-01-25T10:39:22;98081.31;;;1.00;95.85
61109;BME280;46995;55.740;37.402;2024-01-25T10:41:49;98086.31;;;1.03;95.83
61109;BME280;46995;55.740;37.402;2024-01-25T10:44:19;98081.13;;;1.03;95.79
61109;BME280;46995;55.740;37.402;2024-01-25T10:46:47;98075.69;;;1.06;95.51
61109;BME280;46995;55.740;37.402;2024-01-25T10:49:14;98078.28;;;1.06;95.89
61109;BME280;46995;55.740;37.402;2024-01-25T10:51:40;98090.25;;;1.08;95.42
61109;BME280;46995;55.740;37.402;2024-01-25T10:54:07;98072.75;;;1.10;95.60
61109;BME280;46995;55.740;37.402;2024-01-25T10:56:34;98084.81;;;1.11;95.38
61109;BME280;46995;55.740;37.402;2024-01-25T10:59:00;98085.88;;;1.09;95.51
61109;BME280;46995;55.740;37.402;2024-01-25T11:01:26;98086.59;;;1.11;95.58
61109;BME280;46995;55.740;37.402;2024-01-25T11:03:52;98081.88;;;1.16;95.21
61109;BME280;46995;55.740;37.402;2024-01-25T11:06:20;98090.41;;;1.18;95.37
61109;BME280;46995;55.740;37.402;2024-01-25T11:08:46;98083.56;;;1.17;95.13
61109;BME280;46995;55.740;37.402;2024-01-25T11:11:12;98083.34;;;1.20;95.81
61109;BME280;46995;55.740;37.402;2024-01-25T11:13:45;98078.16;;;1.20;95.36
61109;BME280;46995;55.740;37.402;2024-01-25T11:16:28;98087.59;;;1.21;95.42
61109;BME280;46995;55.740;37.402;2024-01-25T11:19:00;98078.66;;;1.25;95.11
61109;BME280;46995;55.740;37.402;2024-01-25T11:21:41;98084.78;;;1.24;95.65
61109;BME280;46995;55.740;37.402;2024-01-25T11:24:21;98089.34;;;1.20;95.13
61109;BME280;46995;55.740;37.402;2024-01-25T11:26:47;98083.34;;;1.20;95.34
61109;BME280;46995;55.740;37.402;2024-01-25T11:29:31;98085.81;;;1.21;95.37
61109;BME280;46995;55.740;37.402;2024-01-25T11:31:57;98088.31;;;1.23;95.55
61109;BME280;46995;55.740;37.402;2024-01-25T11:34:23;98092.69;;;1.22;95.51
61109;BME280;46995;55.740;37.402;2024-01-25T11:36:48;98085.22;;;1.18;95.27
61109;BME280;46995;55.740;37.402;2024-01-25T11:39:15;98089.59;;;1.17;95.69
61109;BME280;46995;55.740;37.402;2024-01-25T11:41:41;98089.50;;;1.19;95.54
61109;BME280;46995;55.740;37.402;2024-01-25T11:44:09;98096.13;;;1.23;95.46
61109;BME280;46995;55.740;37.402;2024-01-25T11:46:35;98085.72;;;1.23;95.35
61109;BME280;46995;55.740;37.402;2024-01-25T11:51:45;98101.09;;;1.26;95.31
61109;BME280;46995;55.740;37.402;2024-01-25T11:54:10;98100.16;;;1.27;95.76
61109;BME280;46995;55.740;37.402;2024-01-25T11:56:37;98099.31;;;1.26;95.25
61109;BME280;46995;55.740;37.402;2024-01-25T11:59:06;98096.84;;;1.25;95.41
61109;BME280;46995;55.740;37.402;2024-01-25T12:01:32;98098.94;;;1.20;95.38
61109;BME280;46995;55.740;37.402;2024-01-25T12:03:58;98102.59;;;1.17;95.52
61109;BME280;46995;55.740;37.402;2024-01-25T12:06:24;98101.06;;;1.15;95.31
61109;BME280;46995;55.740;37.402;2024-01-25T12:08:50;98094.19;;;1.14;95.65
61109;BME280;46995;55.740;37.402;2024-01-25T12:11:17;98103.53;;;1.16;95.60
61109;BME280;46995;55.740;37.402;2024-01-25T12:13:44;98099.38;;;1.14;95.62
61109;BME280;46995;55.740;37.402;2024-01-25T12:16:10;98096.97;;;1.11;95.29
61109;BME280;46995;55.740;37.402;2024-01-25T12:18:40;98099.59;;;1.11;95.69
61109;BME280;46995;55.740;37.402;2024-01-25T12:21:06;98097.94;;;1.10;95.11
61109;BME280;46995;55.740;37.402;2024-01-25T12:23:32;98106.16;;;1.04;95.22
61109;BME280;46995;55.740;37.402;2024-01-25T12:25:59;98104.69;;;1.00;95.47
61109;BME280;46995;55.740;37.402;2024-01-25T12:28:28;98116.06;;;0.99;95.17
61109;BME280;46995;55.740;37.402;2024-01-25T12:30:55;98111.88;;;0.96;95.47
61109;BME280;46995;55.740;37.402;2024-01-25T12:33:20;98106.69;;;0.96;95.35
61109;BME280;46995;55.740;37.402;2024-01-25T12:35:46;98116.47;;;0.93;95.17
61109;BME280;46995;55.740;37.402;2024-01-25T12:38:12;98108.19;;;0.88;95.33
61109;BME280;46995;55.740;37.402;2024-01-25T12:40:37;98111.09;;;0.83;95.33
61109;BME280;46995;55.740;37.402;2024-01-25T12:43:03;98108.59;;;0.81;95.29
61109;BME280;46995;55.740;37.402;2024-01-25T12:45:29;98115.25;;;0.85;95.44
61109;BME280;46995;55.740;37.402;2024-01-25T12:47:55;98113.88;;;0.93;95.76
61109;BME280;46995;55.740;37.402;2024-01-25T12:50:20;98115.44;;;0.95;95.80
61109;BME280;46995;55.740;37.402;2024-01-25T12:52:46;98117.94;;;0.97;95.73
61109;BME280;46995;55.740;37.402;2024-01-25T12:55:12;98109.41;;;0.95;95.83
61109;BME280;46995;55.740;37.402;2024-01-25T12:57:37;98122.63;;;0.92;95.25
61109;BME280;46995;55.740;37.402;2024-01-25T13:00:03;98126.03;;;0.92;95.50
61109;BME280;46995;55.740;37.402;2024-01-25T13:02:29;98120.00;;;0.92;95.12